sensor_id;sensor_type;location;lat;lon;timestamp;P1;durP1;ratioP1;P2;durP2;ratioP2
12334;SDS011;6233;51.560;9.986;2023-03-23T00:02:39;1.53;;;1.30;;
12334;SDS011;6233;51.560;9.986;2023-03-23T00:05:40;1.50;;;1.40;;
12334;SDS011;6233;51.560;9.986;2023-03-23T00:08:50;1.50;;;1.40;;
12334;SDS011;6233;51.560;9.986;2023-03-23T00:11:56;2.20;;;1.67;;
12334;SDS011;6233;51.560;9.986;2023-03-23T00:15:08;2.50;;;1.33;;
12334;SDS011;6233;51.560;9.986;2023-03-23T00:18:12;3.33;;;1.37;;
12334;SDS011;6233;51.560;9.986;2023-03-23T00:21:21;1.53;;;1.43;;
12334;SDS011;6233;51.560;9.986;2023-03-23T00:24:33;2.07;;;1.60;;
12334;SDS011;6233;51.560;9.986;2023-03-23T00:27:34;2.23;;;1.40;;
12334;SDS011;6233;51.560;9.986;2023-03-23T00:30:34;2.50;;;1.50;;
12334;SDS011;6233;51.560;9.986;2023-03-23T00:33:38;1.93;;;1.30;;
12334;SDS011;6233;51.560;9.986;2023-03-23T00:36:40;1.60;;;1.40;;
12334;SDS011;6233;51.560;9.986;2023-03-23T00:39:42;1.50;;;1.40;;
12334;SDS011;6233;51.560;9.986;2023-03-23T00:42:45;4.27;;;1.50;;
12334;SDS011;6233;51.560;9.986;2023-03-23T00:45:48;2.23;;;1.40;;
12334;SDS011;6233;51.560;9.986;2023-03-23T00:48:52;1.40;;;1.30;;
12334;SDS011;6233;51.560;9.986;2023-03-23T00:51:54;1.70;;;1.60;;
12334;SDS011;6233;51.560;9.986;2023-03-23T00:54:57;2.23;;;1.40;;
12334;SDS011;6233;51.560;9.986;2023-03-23T00:57:57;2.13;;;1.43;;
12334;SDS011;6233;51.560;9.986;2023-03-23T01:00:58;1.93;;;1.70;;
12334;SDS011;6233;51.560;9.986;2023-03-23T01:03:59;2.47;;;1.80;;
12334;SDS011;6233;51.560;9.986;2023-03-23T01:07:01;2.03;;;1.60;;
12334;SDS011;6233;51.560;9.986;2023-03-23T01:10:02;1.83;;;1.70;;
12334;SDS011;6233;51.560;9.986;2023-03-23T01:13:04;3.47;;;1.80;;
12334;SDS011;6233;51.560;9.986;2023-03-23T01:16:05;3.37;;;1.83;;
12334;SDS011;6233;51.560;9.986;2023-03-23T01:19:06;4.57;;;1.70;;
12334;SDS011;6233;51.560;9.986;2023-03-23T01:22:07;1.50;;;1.40;;
12334;SDS011;6233;51.560;9.986;2023-03-23T01:25:08;2.27;;;1.87;;
12334;SDS011;6233;51.560;9.986;2023-03-23T01:28:11;2.90;;;1.60;;
12334;SDS011;6233;51.560;9.986;2023-03-23T01:31:13;4.07;;;1.70;;
12334;SDS011;6233;51.560;9.986;2023-03-23T01:34:15;2.23;;;1.80;;
12334;SDS011;6233;51.560;9.986;2023-03-23T01:37:16;1.70;;;1.60;;
12334;SDS011;6233;51.560;9.986;2023-03-23T01:40:17;2.93;;;1.70;;
12334;SDS011;6233;51.560;9.986;2023-03-23T01:43:18;2.60;;;1.70;;
12334;SDS011;6233;51.560;9.986;2023-03-23T01:46:19;6.33;;;1.67;;
12334;SDS011;6233;51.560;9.986;2023-03-23T01:49:33;2.47;;;1.70;;
12334;SDS011;6233;51.560;9.986;2023-03-23T01:52:37;1.90;;;1.60;;
12334;SDS011;6233;51.560;9.986;2023-03-23T01:55:40;2.30;;;1.80;;
12334;SDS011;6233;51.560;9.986;2023-03-23T01:58:43;2.30;;;2.10;;
12334;SDS011;6233;51.560;9.986;2023-03-23T02:01:43;2.80;;;1.83;;
12334;SDS011;6233;51.560;9.986;2023-03-23T02:04:46;2.37;;;1.87;;
12334;SDS011;6233;51.560;9.986;2023-03-23T02:07:47;2.80;;;1.63;;
12334;SDS011;6233;51.560;9.986;2023-03-23T02:10:48;1.70;;;1.60;;
12334;SDS011;6233;51.560;9.986;2023-03-23T02:13:49;4.00;;;1.73;;
12334;SDS011;6233;51.560;9.986;2023-03-23T02:17:13;2.27;;;1.70;;
12334;SDS011;6233;51.560;9.986;2023-03-23T02:37:52;2.60;;;1.57;;
12334;SDS011;6233;51.560;9.986;2023-03-23T02:41:00;2.40;;;1.40;;
12334;SDS011;6233;51.560;9.986;2023-03-23T02:44:03;1.80;;;1.60;;
12334;SDS011;6233;51.560;9.986;2023-03-23T02:47:07;2.73;;;1.50;;
12334;SDS011;6233;51.560;9.986;2023-03-23T02:50:13;1.70;;;1.60;;
12334;SDS011;6233;51.560;9.986;2023-03-23T02:53:17;3.90;;;1.43;;
12334;SDS011;6233;51.560;9.986;2023-03-23T02:56:21;2.00;;;1.77;;
12334;SDS011;6233;51.560;9.986;2023-03-23T02:59:25;2.17;;;1.80;;
12334;SDS011;6233;51.560;9.986;2023-03-23T03:02:35;1.90;;;1.73;;
12334;SDS011;6233;51.560;9.986;2023-03-23T03:05:59;2.00;;;1.90;;
12334;SDS011;6233;51.560;9.986;2023-03-23T03:09:19;1.80;;;1.70;;
12334;SDS011;6233;51.560;9.986;2023-03-23T03:12:29;2.10;;;1.90;;
12334;SDS011;6233;51.560;9.986;2023-03-23T03:22:05;5.00;;;1.93;;
12334;SDS011;6233;51.560;9.986;2023-03-23T03:25:08;2.03;;;1.73;;
12334;SDS011;6233;51.560;9.986;2023-03-23T03:28:17;2.47;;;2.07;;
12334;SDS011;6233;51.560;9.986;2023-03-23T03:31:27;2.97;;;2.10;;
12334;SDS011;6233;51.560;9.986;2023-03-23T03:34:31;2.20;;;1.90;;
12334;SDS011;6233;51.560;9.986;2023-03-23T03:37:34;1.87;;;1.70;;
12334;SDS011;6233;51.560;9.986;2023-03-23T03:40:37;2.03;;;1.70;;
12334;SDS011;6233;51.560;9.986;2023-03-23T03:43:38;1.70;;;1.60;;
12334;SDS011;6233;51.560;9.986;2023-03-23T03:46:39;2.63;;;1.90;;
12334;SDS011;6233;51.560;9.986;2023-03-23T03:49:40;3.13;;;2.17;;
12334;SDS011;6233;51.560;9.986;2023-03-23T03:52:40;2.73;;;2.17;;
12334;SDS011;6233;51.560;9.986;2023-03-23T03:55:41;4.00;;;1.80;;
12334;SDS011;6233;51.560;9.986;2023-03-23T03:58:45;2.30;;;1.83;;
12334;SDS011;6233;51.560;9.986;2023-03-23T04:01:48;4.33;;;2.30;;
12334;SDS011;6233;51.560;9.986;2023-03-23T04:04:54;2.37;;;2.00;;
12334;SDS011;6233;51.560;9.986;2023-03-23T04:07:54;2.10;;;1.90;;
12334;SDS011;6233;51.560;9.986;2023-03-23T04:11:01;2.37;;;1.90;;
12334;SDS011;6233;51.560;9.986;2023-03-23T04:14:02;1.90;;;1.80;;
12334;SDS011;6233;51.560;9.986;2023-03-23T04:17:02;2.17;;;1.90;;
12334;SDS011;6233;51.560;9.986;2023-03-23T04:20:03;3.03;;;2.00;;
12334;SDS011;6233;51.560;9.986;2023-03-23T04:23:18;2.27;;;1.80;;
12334;SDS011;6233;51.560;9.986;2023-03-23T04:26:21;2.37;;;2.10;;
12334;SDS011;6233;51.560;9.986;2023-03-23T04:29:22;3.23;;;2.60;;
12334;SDS011;6233;51.560;9.986;2023-03-23T04:32:23;4.23;;;2.40;;
12334;SDS011;6233;51.560;9.986;2023-03-23T04:35:25;2.63;;;2.20;;
12334;SDS011;6233;51.560;9.986;2023-03-23T04:38:26;3.60;;;2.10;;
12334;SDS011;6233;51.560;9.986;2023-03-23T04:41:28;4.40;;;2.80;;
12334;SDS011;6233;51.560;9.986;2023-03-23T04:44:29;3.23;;;2.40;;
12334;SDS011;6233;51.560;9.986;2023-03-23T04:47:33;3.80;;;2.73;;
12334;SDS011;6233;51.560;9.986;2023-03-23T04:50:40;3.37;;;2.43;;
12334;SDS011;6233;51.560;9.986;2023-03-23T04:53:40;5.10;;;2.33;;
12334;SDS011;6233;51.560;9.986;2023-03-23T04:56:41;2.90;;;2.60;;
12334;SDS011;6233;51.560;9.986;2023-03-23T04:59:42;3.33;;;2.70;;
12334;SDS011;6233;51.560;9.986;2023-03-23T05:02:44;3.13;;;2.50;;
12334;SDS011;6233;51.560;9.986;2023-03-23T05:05:46;4.23;;;2.50;;
12334;SDS011;6233;51.560;9.986;2023-03-23T05:08:52;3.60;;;2.50;;
12334;SDS011;6233;51.560;9.986;2023-03-23T05:11:52;2.60;;;2.40;;
12334;SDS011;6233;51.560;9.986;2023-03-23T05:14:53;3.80;;;2.67;;
12334;SDS011;6233;51.560;9.986;2023-03-23T05:17:54;5.27;;;3.17;;
12334;SDS011;6233;51.560;9.986;2023-03-23T05:20:58;2.33;;;2.13;;
12334;SDS011;6233;51.560;9.986;2023-03-23T05:24:00;3.13;;;2.60;;
12334;SDS011;6233;51.560;9.986;2023-03-23T05:27:01;4.37;;;2.87;;
12334;SDS011;6233;51.560;9.986;2023-03-23T05:30:04;3.23;;;2.60;;
12334;SDS011;6233;51.560;9.986;2023-03-23T05:33:06;4.50;;;3.10;;
12334;SDS011;6233;51.560;9.986;2023-03-23T05:36:07;4.03;;;2.80;;
12334;SDS011;6233;51.560;9.986;2023-03-23T05:39:11;2.27;;;2.07;;
12334;SDS011;6233;51.560;9.986;2023-03-23T05:42:12;3.50;;;2.40;;
12334;SDS011;6233;51.560;9.986;2023-03-23T05:45:13;4.77;;;4.27;;
12334;SDS011;6233;51.560;9.986;2023-03-23T05:48:14;3.20;;;2.07;;
12334;SDS011;6233;51.560;9.986;2023-03-23T05:51:14;2.17;;;1.97;;
12334;SDS011;6233;51.560;9.986;2023-03-23T05:54:15;2.37;;;2.17;;
12334;SDS011;6233;51.560;9.986;2023-03-23T05:57:16;3.07;;;2.77;;
12334;SDS011;6233;51.560;9.986;2023-03-23T06:00:18;2.63;;;2.30;;
12334;SDS011;6233;51.560;9.986;2023-03-23T06:03:20;2.40;;;2.20;;
12334;SDS011;6233;51.560;9.986;2023-03-23T06:06:22;2.53;;;2.20;;
12334;SDS011;6233;51.560;9.986;2023-03-23T06:09:23;3.17;;;2.87;;
12334;SDS011;6233;51.560;9.986;2023-03-23T06:12:25;3.10;;;2.80;;
12334;SDS011;6233;51.560;9.986;2023-03-23T06:15:26;2.77;;;2.10;;
12334;SDS011;6233;51.560;9.986;2023-03-23T06:18:29;2.97;;;2.50;;
12334;SDS011;6233;51.560;9.986;2023-03-23T06:21:33;2.20;;;2.00;;
12334;SDS011;6233;51.560;9.986;2023-03-23T06:24:34;2.93;;;2.60;;
12334;SDS011;6233;51.560;9.986;2023-03-23T06:27:35;2.57;;;2.27;;
12334;SDS011;6233;51.560;9.986;2023-03-23T06:30:36;2.37;;;2.10;;
12334;SDS011;6233;51.560;9.986;2023-03-23T06:33:37;6.40;;;4.93;;
12334;SDS011;6233;51.560;9.986;2023-03-23T06:36:38;3.90;;;3.20;;
12334;SDS011;6233;51.560;9.986;2023-03-23T06:39:39;2.43;;;2.23;;
12334;SDS011;6233;51.560;9.986;2023-03-23T06:42:39;3.33;;;2.60;;
12334;SDS011;6233;51.560;9.986;2023-03-23T06:45:40;3.17;;;2.77;;
12334;SDS011;6233;51.560;9.986;2023-03-23T06:48:41;2.63;;;2.10;;
12334;SDS011;6233;51.560;9.986;2023-03-23T06:51:41;2.47;;;2.27;;
12334;SDS011;6233;51.560;9.986;2023-03-23T06:54:42;3.07;;;2.30;;
12334;SDS011;6233;51.560;9.986;2023-03-23T06:57:43;2.40;;;2.00;;
12334;SDS011;6233;51.560;9.986;2023-03-23T07:00:44;2.73;;;1.93;;
12334;SDS011;6233;51.560;9.986;2023-03-23T07:03:45;2.00;;;1.70;;
12334;SDS011;6233;51.560;9.986;2023-03-23T07:06:46;2.60;;;2.00;;
12334;SDS011;6233;51.560;9.986;2023-03-23T07:09:47;1.90;;;1.77;;
12334;SDS011;6233;51.560;9.986;2023-03-23T07:12:48;1.70;;;1.60;;
12334;SDS011;6233;51.560;9.986;2023-03-23T07:15:49;2.27;;;1.90;;
12334;SDS011;6233;51.560;9.986;2023-03-23T07:18:50;2.17;;;1.90;;
12334;SDS011;6233;51.560;9.986;2023-03-23T07:21:51;2.30;;;2.10;;
12334;SDS011;6233;51.560;9.986;2023-03-23T07:24:52;1.70;;;1.60;;
12334;SDS011;6233;51.560;9.986;2023-03-23T07:27:52;3.20;;;1.70;;
12334;SDS011;6233;51.560;9.986;2023-03-23T07:30:53;2.27;;;1.90;;
12334;SDS011;6233;51.560;9.986;2023-03-23T07:33:54;3.83;;;2.00;;
12334;SDS011;6233;51.560;9.986;2023-03-23T07:36:54;1.90;;;1.73;;
12334;SDS011;6233;51.560;9.986;2023-03-23T07:39:56;2.10;;;1.70;;
12334;SDS011;6233;51.560;9.986;2023-03-23T07:42:56;3.70;;;2.13;;
12334;SDS011;6233;51.560;9.986;2023-03-23T07:45:57;3.73;;;2.37;;
12334;SDS011;6233;51.560;9.986;2023-03-23T07:48:59;2.27;;;1.90;;
12334;SDS011;6233;51.560;9.986;2023-03-23T07:52:00;1.97;;;1.80;;
12334;SDS011;6233;51.560;9.986;2023-03-23T07:55:02;2.20;;;2.00;;
12334;SDS011;6233;51.560;9.986;2023-03-23T07:58:03;1.97;;;1.83;;
12334;SDS011;6233;51.560;9.986;2023-03-23T08:01:04;2.20;;;2.00;;
12334;SDS011;6233;51.560;9.986;2023-03-23T08:04:05;2.60;;;2.03;;
12334;SDS011;6233;51.560;9.986;2023-03-23T08:10:41;2.20;;;2.00;;
12334;SDS011;6233;51.560;9.986;2023-03-23T08:13:42;2.83;;;1.70;;
12334;SDS011;6233;51.560;9.986;2023-03-23T08:16:42;3.43;;;1.90;;
12334;SDS011;6233;51.560;9.986;2023-03-23T08:19:43;2.30;;;2.10;;
12334;SDS011;6233;51.560;9.986;2023-03-23T08:22:49;4.80;;;2.20;;
12334;SDS011;6233;51.560;9.986;2023-03-23T08:25:55;2.27;;;2.00;;
12334;SDS011;6233;51.560;9.986;2023-03-23T08:28:56;1.60;;;1.50;;
12334;SDS011;6233;51.560;9.986;2023-03-23T08:31:57;2.27;;;1.90;;
12334;SDS011;6233;51.560;9.986;2023-03-23T08:34:58;2.20;;;2.00;;
12334;SDS011;6233;51.560;9.986;2023-03-23T08:37:59;2.10;;;1.90;;
12334;SDS011;6233;51.560;9.986;2023-03-23T08:41:00;4.33;;;2.00;;
12334;SDS011;6233;51.560;9.986;2023-03-23T08:44:03;3.03;;;1.83;;
12334;SDS011;6233;51.560;9.986;2023-03-23T08:47:05;2.40;;;2.10;;
12334;SDS011;6233;51.560;9.986;2023-03-23T08:50:08;2.23;;;2.00;;
12334;SDS011;6233;51.560;9.986;2023-03-23T08:53:10;2.37;;;2.07;;
12334;SDS011;6233;51.560;9.986;2023-03-23T08:56:11;2.87;;;2.10;;
12334;SDS011;6233;51.560;9.986;2023-03-23T08:59:13;2.23;;;2.00;;
12334;SDS011;6233;51.560;9.986;2023-03-23T09:02:13;3.03;;;2.27;;
12334;SDS011;6233;51.560;9.986;2023-03-23T09:05:15;2.20;;;1.90;;
12334;SDS011;6233;51.560;9.986;2023-03-23T09:08:17;2.20;;;2.00;;
12334;SDS011;6233;51.560;9.986;2023-03-23T09:11:18;3.63;;;2.13;;
12334;SDS011;6233;51.560;9.986;2023-03-23T09:14:18;2.60;;;1.73;;
12334;SDS011;6233;51.560;9.986;2023-03-23T09:17:19;3.67;;;2.00;;
12334;SDS011;6233;51.560;9.986;2023-03-23T09:20:22;2.53;;;2.10;;
12334;SDS011;6233;51.560;9.986;2023-03-23T09:23:24;2.43;;;2.07;;
12334;SDS011;6233;51.560;9.986;2023-03-23T09:26:25;2.30;;;2.10;;
12334;SDS011;6233;51.560;9.986;2023-03-23T09:29:26;2.70;;;2.03;;
12334;SDS011;6233;51.560;9.986;2023-03-23T09:32:27;2.80;;;1.90;;
12334;SDS011;6233;51.560;9.986;2023-03-23T09:35:28;3.67;;;2.13;;
12334;SDS011;6233;51.560;9.986;2023-03-23T09:38:31;3.23;;;2.80;;
12334;SDS011;6233;51.560;9.986;2023-03-23T09:41:53;2.87;;;2.33;;
12334;SDS011;6233;51.560;9.986;2023-03-23T09:48:24;3.37;;;2.40;;
12334;SDS011;6233;51.560;9.986;2023-03-23T09:54:44;2.40;;;2.17;;
12334;SDS011;6233;51.560;9.986;2023-03-23T10:01:08;2.70;;;2.50;;
12334;SDS011;6233;51.560;9.986;2023-03-23T10:04:30;3.77;;;2.60;;
12334;SDS011;6233;51.560;9.986;2023-03-23T10:07:41;3.07;;;1.90;;
12334;SDS011;6233;51.560;9.986;2023-03-23T10:21:19;5.03;;;2.43;;
12334;SDS011;6233;51.560;9.986;2023-03-23T10:24:31;4.50;;;2.40;;
12334;SDS011;6233;51.560;9.986;2023-03-23T10:28:09;2.60;;;2.07;;
12334;SDS011;6233;51.560;9.986;2023-03-23T10:31:20;3.30;;;2.17;;
12334;SDS011;6233;51.560;9.986;2023-03-23T10:37:35;4.30;;;2.60;;
12334;SDS011;6233;51.560;9.986;2023-03-23T10:40:44;3.87;;;2.60;;
12334;SDS011;6233;51.560;9.986;2023-03-23T10:43:50;3.07;;;2.23;;
12334;SDS011;6233;51.560;9.986;2023-03-23T10:46:56;2.13;;;1.93;;
12334;SDS011;6233;51.560;9.986;2023-03-23T10:50:02;2.90;;;1.97;;
12334;SDS011;6233;51.560;9.986;2023-03-23T10:53:16;2.53;;;1.90;;
12334;SDS011;6233;51.560;9.986;2023-03-23T10:56:23;3.00;;;1.87;;
12334;SDS011;6233;51.560;9.986;2023-03-23T10:59:30;2.47;;;2.20;;
12334;SDS011;6233;51.560;9.986;2023-03-23T11:02:37;2.27;;;1.57;;
12334;SDS011;6233;51.560;9.986;2023-03-23T11:05:53;2.07;;;1.87;;
12334;SDS011;6233;51.560;9.986;2023-03-23T11:09:13;2.60;;;1.90;;
12334;SDS011;6233;51.560;9.986;2023-03-23T11:12:18;3.47;;;1.80;;
12334;SDS011;6233;51.560;9.986;2023-03-23T11:15:22;3.20;;;2.17;;
12334;SDS011;6233;51.560;9.986;2023-03-23T11:21:26;3.37;;;1.90;;
12334;SDS011;6233;51.560;9.986;2023-03-23T11:24:27;3.93;;;2.00;;
12334;SDS011;6233;51.560;9.986;2023-03-23T11:27:29;3.17;;;2.00;;
12334;SDS011;6233;51.560;9.986;2023-03-23T11:30:30;2.67;;;1.90;;
12334;SDS011;6233;51.560;9.986;2023-03-23T11:33:36;2.40;;;2.07;;
12334;SDS011;6233;51.560;9.986;2023-03-23T11:36:58;3.23;;;1.80;;
12334;SDS011;6233;51.560;9.986;2023-03-23T11:43:17;2.13;;;1.60;;
12334;SDS011;6233;51.560;9.986;2023-03-23T11:49:47;4.17;;;1.83;;
12334;SDS011;6233;51.560;9.986;2023-03-23T11:56:35;4.67;;;2.00;;
12334;SDS011;6233;51.560;9.986;2023-03-23T11:59:37;2.67;;;1.87;;
12334;SDS011;6233;51.560;9.986;2023-03-23T12:06:03;3.03;;;1.30;;
12334;SDS011;6233;51.560;9.986;2023-03-23T12:19:19;2.87;;;1.90;;
12334;SDS011;6233;51.560;9.986;2023-03-23T12:22:33;2.30;;;1.60;;
12334;SDS011;6233;51.560;9.986;2023-03-23T12:25:49;1.80;;;1.60;;
12334;SDS011;6233;51.560;9.986;2023-03-23T12:29:27;3.23;;;1.70;;
12334;SDS011;6233;51.560;9.986;2023-03-23T12:32:52;2.60;;;1.50;;
12334;SDS011;6233;51.560;9.986;2023-03-23T12:36:14;1.40;;;1.30;;
12334;SDS011;6233;51.560;9.986;2023-03-23T12:52:54;2.97;;;1.70;;
12334;SDS011;6233;51.560;9.986;2023-03-23T12:56:14;2.83;;;1.90;;
12334;SDS011;6233;51.560;9.986;2023-03-23T13:00:04;2.27;;;1.50;;
12334;SDS011;6233;51.560;9.986;2023-03-23T13:02:56;2.20;;;1.73;;
12334;SDS011;6233;51.560;9.986;2023-03-23T13:12:45;3.00;;;1.40;;
12334;SDS011;6233;51.560;9.986;2023-03-23T13:22:31;3.00;;;1.60;;
12334;SDS011;6233;51.560;9.986;2023-03-23T13:25:59;2.73;;;1.50;;
12334;SDS011;6233;51.560;9.986;2023-03-23T13:29:01;1.53;;;1.40;;
12334;SDS011;6233;51.560;9.986;2023-03-23T13:32:15;1.63;;;1.33;;
12334;SDS011;6233;51.560;9.986;2023-03-23T13:35:19;1.40;;;1.30;;
12334;SDS011;6233;51.560;9.986;2023-03-23T13:38:26;2.60;;;1.60;;
12334;SDS011;6233;51.560;9.986;2023-03-23T13:41:28;3.40;;;2.30;;
12334;SDS011;6233;51.560;9.986;2023-03-23T13:44:43;2.27;;;1.43;;
12334;SDS011;6233;51.560;9.986;2023-03-23T13:48:01;1.93;;;1.33;;
12334;SDS011;6233;51.560;9.986;2023-03-23T13:54:41;1.40;;;1.23;;
12334;SDS011;6233;51.560;9.986;2023-03-23T14:01:01;1.37;;;1.27;;
12334;SDS011;6233;51.560;9.986;2023-03-23T14:04:06;2.90;;;2.27;;
12334;SDS011;6233;51.560;9.986;2023-03-23T14:07:15;1.63;;;1.20;;
12334;SDS011;6233;51.560;9.986;2023-03-23T14:10:19;1.67;;;1.40;;
12334;SDS011;6233;51.560;9.986;2023-03-23T14:13:24;1.43;;;1.33;;
12334;SDS011;6233;51.560;9.986;2023-03-23T14:19:37;1.57;;;1.47;;
12334;SDS011;6233;51.560;9.986;2023-03-23T14:22:39;3.20;;;1.80;;
12334;SDS011;6233;51.560;9.986;2023-03-23T14:25:40;2.00;;;1.67;;
12334;SDS011;6233;51.560;9.986;2023-03-23T14:28:43;1.33;;;1.23;;
12334;SDS011;6233;51.560;9.986;2023-03-23T14:31:47;1.67;;;1.40;;
12334;SDS011;6233;51.560;9.986;2023-03-23T14:34:53;3.13;;;1.50;;
12334;SDS011;6233;51.560;9.986;2023-03-23T14:37:55;1.93;;;1.37;;
12334;SDS011;6233;51.560;9.986;2023-03-23T14:41:03;2.47;;;1.77;;
12334;SDS011;6233;51.560;9.986;2023-03-23T14:44:06;4.20;;;1.13;;
12334;SDS011;6233;51.560;9.986;2023-03-23T14:47:31;2.27;;;1.60;;
12334;SDS011;6233;51.560;9.986;2023-03-23T14:53:59;1.93;;;1.40;;
12334;SDS011;6233;51.560;9.986;2023-03-23T14:57:13;2.50;;;1.67;;
12334;SDS011;6233;51.560;9.986;2023-03-23T15:03:22;3.03;;;1.50;;
12334;SDS011;6233;51.560;9.986;2023-03-23T15:06:24;1.40;;;1.30;;
12334;SDS011;6233;51.560;9.986;2023-03-23T15:09:28;1.90;;;1.10;;
12334;SDS011;6233;51.560;9.986;2023-03-23T15:12:30;1.00;;;1.00;;
12334;SDS011;6233;51.560;9.986;2023-03-23T15:15:31;2.07;;;1.43;;
12334;SDS011;6233;51.560;9.986;2023-03-23T15:18:36;1.37;;;1.20;;
12334;SDS011;6233;51.560;9.986;2023-03-23T15:22:03;3.00;;;1.03;;
12334;SDS011;6233;51.560;9.986;2023-03-23T15:25:11;2.43;;;1.70;;
12334;SDS011;6233;51.560;9.986;2023-03-23T15:31:47;2.70;;;1.30;;
12334;SDS011;6233;51.560;9.986;2023-03-23T15:34:50;1.70;;;1.23;;
12334;SDS011;6233;51.560;9.986;2023-03-23T15:37:56;2.03;;;1.60;;
12334;SDS011;6233;51.560;9.986;2023-03-23T15:41:03;3.03;;;1.20;;
12334;SDS011;6233;51.560;9.986;2023-03-23T15:44:10;1.13;;;1.03;;
12334;SDS011;6233;51.560;9.986;2023-03-23T15:50:19;1.67;;;1.27;;
12334;SDS011;6233;51.560;9.986;2023-03-23T15:53:36;1.40;;;1.30;;
12334;SDS011;6233;51.560;9.986;2023-03-23T15:56:38;1.60;;;1.47;;
12334;SDS011;6233;51.560;9.986;2023-03-23T15:59:39;1.20;;;1.10;;
12334;SDS011;6233;51.560;9.986;2023-03-23T16:02:41;0.83;;;0.80;;
12334;SDS011;6233;51.560;9.986;2023-03-23T16:05:44;2.53;;;1.47;;
12334;SDS011;6233;51.560;9.986;2023-03-23T16:08:46;4.57;;;1.40;;
12334;SDS011;6233;51.560;9.986;2023-03-23T16:11:55;1.40;;;1.17;;
12334;SDS011;6233;51.560;9.986;2023-03-23T16:14:56;2.30;;;1.33;;
12334;SDS011;6233;51.560;9.986;2023-03-23T16:17:58;3.47;;;1.20;;
12334;SDS011;6233;51.560;9.986;2023-03-23T16:21:00;2.87;;;1.23;;
12334;SDS011;6233;51.560;9.986;2023-03-23T16:24:03;1.70;;;1.60;;
12334;SDS011;6233;51.560;9.986;2023-03-23T16:27:07;2.47;;;1.70;;
12334;SDS011;6233;51.560;9.986;2023-03-23T16:33:15;3.03;;;1.57;;
12334;SDS011;6233;51.560;9.986;2023-03-23T16:36:17;2.00;;;1.37;;
12334;SDS011;6233;51.560;9.986;2023-03-23T16:39:19;2.90;;;1.20;;
12334;SDS011;6233;51.560;9.986;2023-03-23T16:42:21;1.70;;;1.30;;
12334;SDS011;6233;51.560;9.986;2023-03-23T16:45:23;1.57;;;1.30;;
12334;SDS011;6233;51.560;9.986;2023-03-23T16:48:26;1.33;;;1.23;;
12334;SDS011;6233;51.560;9.986;2023-03-23T16:51:28;1.50;;;1.40;;
12334;SDS011;6233;51.560;9.986;2023-03-23T16:54:30;1.90;;;1.20;;
12334;SDS011;6233;51.560;9.986;2023-03-23T16:57:32;1.67;;;1.40;;
12334;SDS011;6233;51.560;9.986;2023-03-23T17:00:36;1.47;;;1.23;;
12334;SDS011;6233;51.560;9.986;2023-03-23T17:03:38;2.27;;;1.70;;
12334;SDS011;6233;51.560;9.986;2023-03-23T17:06:43;1.60;;;1.50;;
12334;SDS011;6233;51.560;9.986;2023-03-23T17:09:46;3.57;;;1.20;;
12334;SDS011;6233;51.560;9.986;2023-03-23T17:12:48;2.33;;;1.30;;
12334;SDS011;6233;51.560;9.986;2023-03-23T17:15:51;3.07;;;1.50;;
12334;SDS011;6233;51.560;9.986;2023-03-23T17:18:54;1.90;;;1.20;;
12334;SDS011;6233;51.560;9.986;2023-03-23T17:21:55;1.37;;;1.27;;
12334;SDS011;6233;51.560;9.986;2023-03-23T17:24:57;1.37;;;1.27;;
12334;SDS011;6233;51.560;9.986;2023-03-23T17:27:59;3.57;;;1.43;;
12334;SDS011;6233;51.560;9.986;2023-03-23T17:31:06;2.23;;;1.10;;
12334;SDS011;6233;51.560;9.986;2023-03-23T17:34:08;2.00;;;1.00;;
12334;SDS011;6233;51.560;9.986;2023-03-23T17:37:10;1.87;;;1.17;;
12334;SDS011;6233;51.560;9.986;2023-03-23T17:40:12;2.40;;;1.20;;
12334;SDS011;6233;51.560;9.986;2023-03-23T17:43:14;2.90;;;1.30;;
12334;SDS011;6233;51.560;9.986;2023-03-23T17:46:16;1.20;;;1.07;;
12334;SDS011;6233;51.560;9.986;2023-03-23T17:49:18;1.40;;;1.30;;
12334;SDS011;6233;51.560;9.986;2023-03-23T17:52:20;1.57;;;1.30;;
12334;SDS011;6233;51.560;9.986;2023-03-23T17:55:22;1.20;;;1.10;;
12334;SDS011;6233;51.560;9.986;2023-03-23T17:58:24;2.50;;;1.90;;
12334;SDS011;6233;51.560;9.986;2023-03-23T18:01:27;2.77;;;1.50;;
12334;SDS011;6233;51.560;9.986;2023-03-23T18:04:28;1.43;;;1.20;;
12334;SDS011;6233;51.560;9.986;2023-03-23T18:07:30;3.07;;;1.30;;
12334;SDS011;6233;51.560;9.986;2023-03-23T18:10:32;2.27;;;1.40;;
12334;SDS011;6233;51.560;9.986;2023-03-23T18:13:36;1.87;;;1.40;;
12334;SDS011;6233;51.560;9.986;2023-03-23T18:16:39;1.40;;;1.30;;
12334;SDS011;6233;51.560;9.986;2023-03-23T18:19:42;1.80;;;1.47;;
12334;SDS011;6233;51.560;9.986;2023-03-23T18:22:44;1.10;;;1.10;;
12334;SDS011;6233;51.560;9.986;2023-03-23T18:25:46;2.40;;;1.73;;
12334;SDS011;6233;51.560;9.986;2023-03-23T18:28:49;1.87;;;1.60;;
12334;SDS011;6233;51.560;9.986;2023-03-23T18:31:52;1.40;;;1.30;;
12334;SDS011;6233;51.560;9.986;2023-03-23T18:34:54;2.03;;;1.30;;
12334;SDS011;6233;51.560;9.986;2023-03-23T18:37:56;1.40;;;1.30;;
12334;SDS011;6233;51.560;9.986;2023-03-23T18:40:57;1.63;;;1.53;;
12334;SDS011;6233;51.560;9.986;2023-03-23T18:43:59;8.17;;;4.40;;
12334;SDS011;6233;51.560;9.986;2023-03-23T18:47:01;3.47;;;2.00;;
12334;SDS011;6233;51.560;9.986;2023-03-23T18:50:04;2.77;;;1.73;;
12334;SDS011;6233;51.560;9.986;2023-03-23T18:53:07;2.00;;;1.53;;
12334;SDS011;6233;51.560;9.986;2023-03-23T18:56:10;3.27;;;2.03;;
12334;SDS011;6233;51.560;9.986;2023-03-23T18:59:18;3.40;;;1.50;;
12334;SDS011;6233;51.560;9.986;2023-03-23T19:02:24;1.40;;;1.27;;
12334;SDS011;6233;51.560;9.986;2023-03-23T19:05:25;2.40;;;1.57;;
12334;SDS011;6233;51.560;9.986;2023-03-23T19:08:28;1.87;;;1.70;;
12334;SDS011;6233;51.560;9.986;2023-03-23T19:11:31;1.50;;;1.40;;
12334;SDS011;6233;51.560;9.986;2023-03-23T19:14:33;1.60;;;1.50;;
12334;SDS011;6233;51.560;9.986;2023-03-23T19:17:35;1.60;;;1.50;;
12334;SDS011;6233;51.560;9.986;2023-03-23T19:20:38;1.60;;;1.50;;
12334;SDS011;6233;51.560;9.986;2023-03-23T19:24:01;2.20;;;1.50;;
12334;SDS011;6233;51.560;9.986;2023-03-23T19:27:03;1.80;;;1.60;;
12334;SDS011;6233;51.560;9.986;2023-03-23T19:30:06;1.60;;;1.50;;
12334;SDS011;6233;51.560;9.986;2023-03-23T19:33:08;1.70;;;1.60;;
12334;SDS011;6233;51.560;9.986;2023-03-23T19:36:10;1.93;;;1.60;;
12334;SDS011;6233;51.560;9.986;2023-03-23T19:39:13;2.90;;;2.00;;
12334;SDS011;6233;51.560;9.986;2023-03-23T19:42:15;2.00;;;1.70;;
12334;SDS011;6233;51.560;9.986;2023-03-23T19:45:18;3.40;;;1.87;;
12334;SDS011;6233;51.560;9.986;2023-03-23T19:48:20;3.77;;;1.70;;
12334;SDS011;6233;51.560;9.986;2023-03-23T19:51:22;1.93;;;1.83;;
12334;SDS011;6233;51.560;9.986;2023-03-23T19:54:24;2.50;;;1.40;;
12334;SDS011;6233;51.560;9.986;2023-03-23T19:57:25;2.40;;;1.50;;
12334;SDS011;6233;51.560;9.986;2023-03-23T20:00:27;2.43;;;1.80;;
12334;SDS011;6233;51.560;9.986;2023-03-23T20:03:29;3.17;;;1.80;;
12334;SDS011;6233;51.560;9.986;2023-03-23T20:06:31;2.20;;;1.80;;
12334;SDS011;6233;51.560;9.986;2023-03-23T20:09:34;2.17;;;1.80;;
12334;SDS011;6233;51.560;9.986;2023-03-23T20:12:38;2.63;;;2.00;;
12334;SDS011;6233;51.560;9.986;2023-03-23T20:15:40;2.83;;;1.70;;
12334;SDS011;6233;51.560;9.986;2023-03-23T20:18:41;2.70;;;1.73;;
12334;SDS011;6233;51.560;9.986;2023-03-23T20:21:44;3.03;;;1.80;;
12334;SDS011;6233;51.560;9.986;2023-03-23T20:24:46;3.57;;;2.00;;
12334;SDS011;6233;51.560;9.986;2023-03-23T20:27:49;2.93;;;1.80;;
12334;SDS011;6233;51.560;9.986;2023-03-23T20:31:04;2.07;;;1.87;;
12334;SDS011;6233;51.560;9.986;2023-03-23T20:34:25;2.50;;;2.00;;
12334;SDS011;6233;51.560;9.986;2023-03-23T20:37:31;2.77;;;1.67;;
12334;SDS011;6233;51.560;9.986;2023-03-23T20:40:34;3.60;;;2.10;;
12334;SDS011;6233;51.560;9.986;2023-03-23T20:43:39;3.07;;;1.93;;
12334;SDS011;6233;51.560;9.986;2023-03-23T20:46:42;2.77;;;1.93;;
12334;SDS011;6233;51.560;9.986;2023-03-23T20:49:45;2.23;;;2.03;;
12334;SDS011;6233;51.560;9.986;2023-03-23T20:52:53;2.97;;;2.23;;
12334;SDS011;6233;51.560;9.986;2023-03-23T20:55:56;3.07;;;2.23;;
12334;SDS011;6233;51.560;9.986;2023-03-23T20:58:59;2.97;;;2.13;;